sensor_id;sensor_type;location;lat;lon;timestamp;pressure;altitude;pressure_sealevel;temperature;humidity
56392;BME280;42289;53.582;9.714;2022-08-19T00:00:54;101406.88;;;18.26;100.00
56392;BME280;42289;53.582;9.714;2022-08-19T00:03:20;101404.16;;;18.27;100.00
56392;BME280;42289;53.582;9.714;2022-08-19T00:05:47;101403.13;;;18.30;100.00
56392;BME280;42289;53.582;9.714;2022-08-19T00:08:13;101408.38;;;18.30;100.00
56392;BME280;42289;53.582;9.714;2022-08-19T00:10:39;101404.16;;;18.27;100.00
56392;BME280;42289;53.582;9.714;2022-08-19T00:13:06;101387.88;;;18.35;100.00
56392;BME280;42289;53.582;9.714;2022-08-19T00:15:32;101393.06;;;18.37;100.00
56392;BME280;42289;53.582;9.714;2022-08-19T00:18:00;101388.56;;;18.39;100.00
56392;BME280;42289;53.582;9.714;2022-08-19T00:20:27;101376.88;;;18.43;100.00
56392;BME280;42289;53.582;9.714;2022-08-19T00:22:53;101386.03;;;18.37;100.00
56392;BME280;42289;53.582;9.714;2022-08-19T00:25:20;101381.31;;;18.42;100.00
56392;BME280;42289;53.582;9.714;2022-08-19T00:27:47;101384.69;;;18.44;100.00
56392;BME280;42289;53.582;9.714;2022-08-19T00:30:14;101384.09;;;18.54;100.00
56392;BME280;42289;53.582;9.714;2022-08-19T00:32:40;101382.59;;;18.49;100.00
56392;BME280;42289;53.582;9.714;2022-08-19T00:35:08;101386.94;;;18.51;100.00
56392;BME280;42289;53.582;9.714;2022-08-19T00:37:35;101387.66;;;18.53;100.00
56392;BME280;42289;53.582;9.714;2022-08-19T00:40:04;101393.34;;;18.46;100.00
56392;BME280;42289;53.582;9.714;2022-08-19T00:42:31;101388.91;;;18.47;100.00
56392;BME280;42289;53.582;9.714;2022-08-19T00:44:57;101373.13;;;18.47;100.00
56392;BME280;42289;53.582;9.714;2022-08-19T00:47:24;101378.59;;;18.44;100.00
56392;BME280;42289;53.582;9.714;2022-08-19T00:49:52;101390.63;;;18.48;100.00
56392;BME280;42289;53.582;9.714;2022-08-19T00:52:23;101373.94;;;18.47;100.00
56392;BME280;42289;53.582;9.714;2022-08-19T00:54:51;101373.41;;;18.42;100.00
56392;BME280;42289;53.582;9.714;2022-08-19T00:57:24;101375.66;;;18.48;100.00
56392;BME280;42289;53.582;9.714;2022-08-19T00:59:54;101380.25;;;18.45;100.00
56392;BME280;42289;53.582;9.714;2022-08-19T01:02:22;101391.25;;;18.52;100.00
56392;BME280;42289;53.582;9.714;2022-08-19T01:04:48;101370.38;;;18.48;100.00
56392;BME280;42289;53.582;9.714;2022-08-19T01:07:15;101374.59;;;18.51;100.00
56392;BME280;42289;53.582;9.714;2022-08-19T01:09:43;101370.72;;;18.57;100.00
56392;BME280;42289;53.582;9.714;2022-08-19T01:12:09;101374.41;;;18.54;100.00
56392;BME280;42289;53.582;9.714;2022-08-19T01:14:39;101387.47;;;18.56;100.00
56392;BME280;42289;53.582;9.714;2022-08-19T01:17:06;101376.22;;;18.54;100.00
56392;BME280;42289;53.582;9.714;2022-08-19T01:19:36;101384.41;;;18.49;100.00
56392;BME280;42289;53.582;9.714;2022-08-19T01:22:07;101388.25;;;18.43;100.00
56392;BME280;42289;53.582;9.714;2022-08-19T01:24:36;101383.34;;;18.52;100.00
56392;BME280;42289;53.582;9.714;2022-08-19T01:27:04;101386.38;;;18.45;100.00
56392;BME280;42289;53.582;9.714;2022-08-19T01:29:30;101391.16;;;18.53;100.00
56392;BME280;42289;53.582;9.714;2022-08-19T01:31:57;101394.44;;;18.57;100.00
56392;BME280;42289;53.582;9.714;2022-08-19T01:34:23;101399.53;;;18.60;100.00
56392;BME280;42289;53.582;9.714;2022-08-19T01:36:50;101399.69;;;18.57;100.00
56392;BME280;42289;53.582;9.714;2022-08-19T01:39:19;101396.50;;;18.52;100.00
56392;BME280;42289;53.582;9.714;2022-08-19T01:41:48;101398.59;;;18.46;100.00
56392;BME280;42289;53.582;9.714;2022-08-19T01:44:16;101405.53;;;18.47;100.00
56392;BME280;42289;53.582;9.714;2022-08-19T01:46:44;101400.00;;;18.52;100.00
56392;BME280;42289;53.582;9.714;2022-08-19T01:49:12;101403.47;;;18.53;100.00
56392;BME280;42289;53.582;9.714;2022-08-19T01:51:38;101408.94;;;18.49;100.00
56392;BME280;42289;53.582;9.714;2022-08-19T01:54:05;101431.13;;;18.45;100.00
56392;BME280;42289;53.582;9.714;2022-08-19T01:56:31;101436.00;;;18.52;100.00
56392;BME280;42289;53.582;9.714;2022-08-19T01:59:02;101437.22;;;18.46;100.00
56392;BME280;42289;53.582;9.714;2022-08-19T02:01:29;101430.19;;;18.46;100.00
56392;BME280;42289;53.582;9.714;2022-08-19T02:03:57;101433.47;;;18.50;100.00
56392;BME280;42289;53.582;9.714;2022-08-19T02:06:23;101491.28;;;18.52;100.00
56392;BME280;42289;53.582;9.714;2022-08-19T02:08:50;101500.16;;;18.51;100.00
56392;BME280;42289;53.582;9.714;2022-08-19T02:11:20;101495.06;;;18.47;100.00
56392;BME280;42289;53.582;9.714;2022-08-19T02:13:47;101494.09;;;18.34;100.00
56392;BME280;42289;53.582;9.714;2022-08-19T02:16:16;101480.00;;;18.35;100.00
56392;BME280;42289;53.582;9.714;2022-08-19T02:18:42;101467.88;;;18.32;100.00
56392;BME280;42289;53.582;9.714;2022-08-19T02:21:09;101465.81;;;18.38;100.00
56392;BME280;42289;53.582;9.714;2022-08-19T02:23:35;101472.13;;;18.35;100.00
56392;BME280;42289;53.582;9.714;2022-08-19T02:26:02;101474.59;;;18.38;100.00
56392;BME280;42289;53.582;9.714;2022-08-19T02:28:28;101478.91;;;18.25;100.00
56392;BME280;42289;53.582;9.714;2022-08-19T02:30:55;101480.22;;;18.32;100.00
56392;BME280;42289;53.582;9.714;2022-08-19T02:33:23;101479.44;;;18.30;100.00
56392;BME280;42289;53.582;9.714;2022-08-19T02:35:49;101474.13;;;18.31;100.00
56392;BME280;42289;53.582;9.714;2022-08-19T02:38:16;101467.41;;;18.26;100.00
56392;BME280;42289;53.582;9.714;2022-08-19T02:40:51;101463.38;;;18.35;100.00
56392;BME280;42289;53.582;9.714;2022-08-19T02:43:18;101457.25;;;18.34;100.00
56392;BME280;42289;53.582;9.714;2022-08-19T02:45:47;101450.41;;;18.31;100.00
56392;BME280;42289;53.582;9.714;2022-08-19T02:48:14;101445.81;;;18.21;100.00
56392;BME280;42289;53.582;9.714;2022-08-19T02:50:43;101449.66;;;18.29;100.00
56392;BME280;42289;53.582;9.714;2022-08-19T02:53:10;101447.31;;;18.25;100.00
56392;BME280;42289;53.582;9.714;2022-08-19T02:55:43;101446.72;;;18.34;100.00
56392;BME280;42289;53.582;9.714;2022-08-19T02:58:10;101450.59;;;18.28;100.00
56392;BME280;42289;53.582;9.714;2022-08-19T03:00:41;101454.25;;;18.26;100.00
56392;BME280;42289;53.582;9.714;2022-08-19T03:03:08;101464.78;;;18.26;100.00
56392;BME280;42289;53.582;9.714;2022-08-19T03:05:35;101465.63;;;18.41;100.00
56392;BME280;42289;53.582;9.714;2022-08-19T03:08:03;101460.34;;;18.41;100.00
56392;BME280;42289;53.582;9.714;2022-08-19T03:10:30;101459.16;;;18.32;100.00
56392;BME280;42289;53.582;9.714;2022-08-19T03:12:57;101453.31;;;18.27;100.00
56392;BME280;42289;53.582;9.714;2022-08-19T03:15:23;101462.34;;;18.23;100.00
56392;BME280;42289;53.582;9.714;2022-08-19T03:17:51;101464.31;;;18.19;100.00
56392;BME280;42289;53.582;9.714;2022-08-19T03:20:18;101461.59;;;18.21;100.00
56392;BME280;42289;53.582;9.714;2022-08-19T03:22:44;101461.38;;;18.09;100.00
56392;BME280;42289;53.582;9.714;2022-08-19T03:25:12;101472.28;;;18.18;100.00
56392;BME280;42289;53.582;9.714;2022-08-19T03:27:39;101477.75;;;18.14;100.00
56392;BME280;42289;53.582;9.714;2022-08-19T03:30:06;101478.78;;;18.12;100.00
56392;BME280;42289;53.582;9.714;2022-08-19T03:32:34;101479.06;;;18.07;100.00
56392;BME280;42289;53.582;9.714;2022-08-19T03:35:00;101472.28;;;18.03;100.00
56392;BME280;42289;53.582;9.714;2022-08-19T03:37:27;101469.09;;;17.98;100.00
56392;BME280;42289;53.582;9.714;2022-08-19T03:39:54;101474.94;;;18.03;100.00
56392;BME280;42289;53.582;9.714;2022-08-19T03:42:21;101483.66;;;18.04;100.00
56392;BME280;42289;53.582;9.714;2022-08-19T03:44:48;101483.28;;;17.95;100.00
56392;BME280;42289;53.582;9.714;2022-08-19T03:47:14;101500.56;;;17.99;100.00
56392;BME280;42289;53.582;9.714;2022-08-19T03:49:42;101499.38;;;17.89;100.00
56392;BME280;42289;53.582;9.714;2022-08-19T03:52:08;101514.84;;;17.95;100.00
56392;BME280;42289;53.582;9.714;2022-08-19T03:54:35;101513.97;;;17.95;100.00
56392;BME280;42289;53.582;9.714;2022-08-19T03:57:03;101516.69;;;17.93;100.00
56392;BME280;42289;53.582;9.714;2022-08-19T03:59:33;101512.09;;;17.97;100.00
56392;BME280;42289;53.582;9.714;2022-08-19T04:02:03;101520.19;;;17.94;100.00
56392;BME280;42289;53.582;9.714;2022-08-19T04:04:32;101518.66;;;17.90;100.00
56392;BME280;42289;53.582;9.714;2022-08-19T04:06:59;101508.19;;;17.88;100.00
56392;BME280;42289;53.582;9.714;2022-08-19T04:09:25;101513.44;;;17.88;100.00
56392;BME280;42289;53.582;9.714;2022-08-19T04:11:55;101501.59;;;17.81;100.00
56392;BME280;42289;53.582;9.714;2022-08-19T04:14:24;101495.00;;;17.74;100.00
56392;BME280;42289;53.582;9.714;2022-08-19T04:16:52;101498.38;;;17.76;100.00
56392;BME280;42289;53.582;9.714;2022-08-19T04:19:19;101505.63;;;17.72;100.00
56392;BME280;42289;53.582;9.714;2022-08-19T04:21:48;101519.13;;;17.66;100.00
56392;BME280;42289;53.582;9.714;2022-08-19T04:24:15;101526.72;;;17.71;100.00
56392;BME280;42289;53.582;9.714;2022-08-19T04:26:42;101530.22;;;17.71;100.00
56392;BME280;42289;53.582;9.714;2022-08-19T04:29:11;101531.66;;;17.61;100.00
56392;BME280;42289;53.582;9.714;2022-08-19T04:31:37;101538.13;;;17.55;100.00
56392;BME280;42289;53.582;9.714;2022-08-19T04:34:09;101545.94;;;17.57;100.00
56392;BME280;42289;53.582;9.714;2022-08-19T04:36:37;101559.84;;;17.59;100.00
56392;BME280;42289;53.582;9.714;2022-08-19T04:39:08;101568.38;;;17.62;100.00
56392;BME280;42289;53.582;9.714;2022-08-19T04:41:35;101575.34;;;17.63;100.00
56392;BME280;42289;53.582;9.714;2022-08-19T04:44:19;101572.03;;;17.60;100.00
56392;BME280;42289;53.582;9.714;2022-08-19T04:46:46;101578.41;;;17.56;100.00
56392;BME280;42289;53.582;9.714;2022-08-19T04:49:16;101577.97;;;17.63;100.00
56392;BME280;42289;53.582;9.714;2022-08-19T04:51:45;101580.38;;;17.68;100.00
56392;BME280;42289;53.582;9.714;2022-08-19T04:54:12;101571.47;;;17.55;100.00
56392;BME280;42289;53.582;9.714;2022-08-19T04:56:39;101576.47;;;17.59;100.00
56392;BME280;42289;53.582;9.714;2022-08-19T04:59:06;101578.66;;;17.51;100.00
56392;BME280;42289;53.582;9.714;2022-08-19T05:01:33;101586.13;;;17.59;100.00
56392;BME280;42289;53.582;9.714;2022-08-19T05:04:03;101589.28;;;17.49;100.00
56392;BME280;42289;53.582;9.714;2022-08-19T05:06:32;101580.09;;;17.57;100.00
56392;BME280;42289;53.582;9.714;2022-08-19T05:08:59;101590.63;;;17.57;100.00
56392;BME280;42289;53.582;9.714;2022-08-19T05:11:28;101597.50;;;17.59;100.00
56392;BME280;42289;53.582;9.714;2022-08-19T05:13:56;101598.00;;;17.66;100.00
56392;BME280;42289;53.582;9.714;2022-08-19T05:16:24;101590.81;;;17.54;100.00
56392;BME280;42289;53.582;9.714;2022-08-19T05:18:51;101585.97;;;17.62;100.00
56392;BME280;42289;53.582;9.714;2022-08-19T05:21:48;101581.72;;;17.59;100.00
56392;BME280;42289;53.582;9.714;2022-08-19T05:24:32;101583.06;;;17.66;100.00
56392;BME280;42289;53.582;9.714;2022-08-19T05:26:59;101588.31;;;17.66;100.00
56392;BME280;42289;53.582;9.714;2022-08-19T05:29:28;101589.19;;;17.67;100.00
56392;BME280;42289;53.582;9.714;2022-08-19T05:31:57;101591.81;;;17.67;100.00
56392;BME280;42289;53.582;9.714;2022-08-19T05:34:24;101582.50;;;17.61;100.00
56392;BME280;42289;53.582;9.714;2022-08-19T05:36:54;101595.53;;;17.63;100.00
56392;BME280;42289;53.582;9.714;2022-08-19T05:39:24;101593.75;;;17.63;100.00
56392;BME280;42289;53.582;9.714;2022-08-19T05:41:53;101597.91;;;17.68;100.00
56392;BME280;42289;53.582;9.714;2022-08-19T05:44:23;101596.19;;;17.66;100.00
56392;BME280;42289;53.582;9.714;2022-08-19T05:46:49;101589.69;;;17.74;100.00
56392;BME280;42289;53.582;9.714;2022-08-19T05:49:19;101591.09;;;17.79;100.00
56392;BME280;42289;53.582;9.714;2022-08-19T05:51:46;101595.94;;;17.87;100.00
56392;BME280;42289;53.582;9.714;2022-08-19T05:54:14;101589.81;;;17.87;100.00
56392;BME280;42289;53.582;9.714;2022-08-19T05:56:42;101587.88;;;17.90;100.00
56392;BME280;42289;53.582;9.714;2022-08-19T05:59:09;101583.13;;;17.97;100.00
56392;BME280;42289;53.582;9.714;2022-08-19T06:01:37;101576.25;;;17.94;100.00
56392;BME280;42289;53.582;9.714;2022-08-19T06:04:04;101565.84;;;17.93;100.00
56392;BME280;42289;53.582;9.714;2022-08-19T06:06:31;101554.28;;;17.95;100.00
56392;BME280;42289;53.582;9.714;2022-08-19T06:08:59;101554.78;;;18.02;100.00
56392;BME280;42289;53.582;9.714;2022-08-19T06:11:34;101554.88;;;18.01;100.00
56392;BME280;42289;53.582;9.714;2022-08-19T06:14:03;101548.75;;;18.00;100.00
56392;BME280;42289;53.582;9.714;2022-08-19T06:16:34;101546.13;;;18.00;100.00
56392;BME280;42289;53.582;9.714;2022-08-19T06:19:03;101554.50;;;18.07;100.00
56392;BME280;42289;53.582;9.714;2022-08-19T06:21:32;101548.97;;;18.11;100.00
56392;BME280;42289;53.582;9.714;2022-08-19T06:23:59;101544.47;;;18.13;100.00
56392;BME280;42289;53.582;9.714;2022-08-19T06:26:26;101540.41;;;18.08;100.00
56392;BME280;42289;53.582;9.714;2022-08-19T06:28:54;101547.47;;;18.07;100.00
56392;BME280;42289;53.582;9.714;2022-08-19T06:31:24;101549.53;;;18.02;100.00
56392;BME280;42289;53.582;9.714;2022-08-19T06:33:50;101547.91;;;17.99;100.00
56392;BME280;42289;53.582;9.714;2022-08-19T06:36:21;101552.31;;;17.99;100.00
56392;BME280;42289;53.582;9.714;2022-08-19T06:38:52;101551.88;;;18.07;100.00
56392;BME280;42289;53.582;9.714;2022-08-19T06:41:18;101564.19;;;18.06;100.00
56392;BME280;42289;53.582;9.714;2022-08-19T06:43:45;101563.66;;;18.15;100.00
56392;BME280;42289;53.582;9.714;2022-08-19T06:46:16;101559.91;;;18.20;100.00
56392;BME280;42289;53.582;9.714;2022-08-19T06:48:44;101547.19;;;18.12;100.00
56392;BME280;42289;53.582;9.714;2022-08-19T06:51:10;101552.09;;;18.18;100.00
56392;BME280;42289;53.582;9.714;2022-08-19T06:53:37;101550.41;;;18.17;100.00
56392;BME280;42289;53.582;9.714;2022-08-19T06:56:04;101545.13;;;18.17;100.00
56392;BME280;42289;53.582;9.714;2022-08-19T06:58:31;101539.78;;;18.19;100.00
56392;BME280;42289;53.582;9.714;2022-08-19T07:00:59;101534.53;;;18.19;100.00
56392;BME280;42289;53.582;9.714;2022-08-19T07:03:29;101540.06;;;18.28;100.00
56392;BME280;42289;53.582;9.714;2022-08-19T07:05:58;101539.25;;;18.28;100.00
56392;BME280;42289;53.582;9.714;2022-08-19T07:08:24;101517.63;;;18.37;100.00
56392;BME280;42289;53.582;9.714;2022-08-19T07:10:52;101518.47;;;18.38;100.00
56392;BME280;42289;53.582;9.714;2022-08-19T07:13:20;101515.75;;;18.39;100.00
56392;BME280;42289;53.582;9.714;2022-08-19T07:15:47;101507.38;;;18.32;100.00
56392;BME280;42289;53.582;9.714;2022-08-19T07:18:15;101517.31;;;18.27;100.00
56392;BME280;42289;53.582;9.714;2022-08-19T07:20:43;101515.16;;;18.20;100.00
56392;BME280;42289;53.582;9.714;2022-08-19T07:23:10;101529.63;;;18.27;100.00
56392;BME280;42289;53.582;9.714;2022-08-19T07:25:36;101532.75;;;18.33;100.00
56392;BME280;42289;53.582;9.714;2022-08-19T07:28:03;101528.91;;;18.39;100.00
56392;BME280;42289;53.582;9.714;2022-08-19T07:30:30;101528.75;;;18.42;100.00
56392;BME280;42289;53.582;9.714;2022-08-19T07:32:57;101516.13;;;18.47;100.00
56392;BME280;42289;53.582;9.714;2022-08-19T07:35:23;101519.72;;;18.46;100.00
56392;BME280;42289;53.582;9.714;2022-08-19T07:37:52;101527.13;;;18.54;100.00
56392;BME280;42289;53.582;9.714;2022-08-19T07:40:18;101512.34;;;18.52;100.00
56392;BME280;42289;53.582;9.714;2022-08-19T07:42:45;101517.34;;;18.42;100.00
56392;BME280;42289;53.582;9.714;2022-08-19T07:45:11;101536.16;;;18.50;100.00
56392;BME280;42289;53.582;9.714;2022-08-19T07:47:38;101529.28;;;18.47;100.00
56392;BME280;42289;53.582;9.714;2022-08-19T07:50:07;101537.38;;;18.44;100.00
56392;BME280;42289;53.582;9.714;2022-08-19T07:52:36;101540.41;;;18.38;100.00
56392;BME280;42289;53.582;9.714;2022-08-19T07:55:08;101548.34;;;18.37;100.00
56392;BME280;42289;53.582;9.714;2022-08-19T07:57:35;101556.53;;;18.32;100.00
56392;BME280;42289;53.582;9.714;2022-08-19T08:00:04;101565.28;;;18.32;100.00
56392;BME280;42289;53.582;9.714;2022-08-19T08:02:30;101566.69;;;18.24;100.00
56392;BME280;42289;53.582;9.714;2022-08-19T08:04:57;101581.53;;;18.25;100.00
56392;BME280;42289;53.582;9.714;2022-08-19T08:07:41;101583.34;;;18.39;100.00
56392;BME280;42289;53.582;9.714;2022-08-19T08:10:26;101582.97;;;18.30;100.00
56392;BME280;42289;53.582;9.714;2022-08-19T08:12:53;101589.72;;;18.35;100.00
56392;BME280;42289;53.582;9.714;2022-08-19T08:15:20;101603.72;;;18.35;100.00
56392;BME280;42289;53.582;9.714;2022-08-19T08:17:47;101613.31;;;18.36;100.00
56392;BME280;42289;53.582;9.714;2022-08-19T08:20:14;101605.22;;;18.25;100.00
56392;BME280;42289;53.582;9.714;2022-08-19T08:22:43;101608.25;;;18.33;100.00
56392;BME280;42289;53.582;9.714;2022-08-19T08:25:29;101620.00;;;18.42;100.00
56392;BME280;42289;53.582;9.714;2022-08-19T08:27:56;101614.25;;;18.35;100.00
56392;BME280;42289;53.582;9.714;2022-08-19T08:30:26;101616.72;;;18.38;100.00
56392;BME280;42289;53.582;9.714;2022-08-19T08:32:53;101626.31;;;18.39;100.00
56392;BME280;42289;53.582;9.714;2022-08-19T08:35:22;101624.78;;;18.35;100.00
56392;BME280;42289;53.582;9.714;2022-08-19T08:37:51;101623.03;;;18.36;100.00
56392;BME280;42289;53.582;9.714;2022-08-19T08:40:21;101627.91;;;18.42;100.00
56392;BME280;42289;53.582;9.714;2022-08-19T08:42:55;101634.09;;;18.41;100.00
56392;BME280;42289;53.582;9.714;2022-08-19T08:45:26;101623.72;;;18.54;100.00
56392;BME280;42289;53.582;9.714;2022-08-19T08:47:55;101604.03;;;18.45;100.00
56392;BME280;42289;53.582;9.714;2022-08-19T08:50:29;101606.84;;;18.42;100.00
56392;BME280;42289;53.582;9.714;2022-08-19T08:53:01;101587.69;;;18.40;100.00
56392;BME280;42289;53.582;9.714;2022-08-19T08:55:29;101597.00;;;18.45;100.00
56392;BME280;42289;53.582;9.714;2022-08-19T08:58:00;101596.81;;;18.48;100.00
56392;BME280;42289;53.582;9.714;2022-08-19T09:00:30;101596.44;;;18.55;100.00
56392;BME280;42289;53.582;9.714;2022-08-19T09:02:58;101588.56;;;18.55;100.00
56392;BME280;42289;53.582;9.714;2022-08-19T09:05:32;101588.34;;;18.58;100.00
56392;BME280;42289;53.582;9.714;2022-08-19T09:08:05;101586.28;;;18.63;100.00
56392;BME280;42289;53.582;9.714;2022-08-19T09:10:37;101587.97;;;18.78;100.00
56392;BME280;42289;53.582;9.714;2022-08-19T09:13:10;101572.75;;;18.83;100.00
56392;BME280;42289;53.582;9.714;2022-08-19T09:15:42;101566.44;;;18.86;100.00
56392;BME280;42289;53.582;9.714;2022-08-19T09:18:10;101555.94;;;19.01;100.00
56392;BME280;42289;53.582;9.714;2022-08-19T09:20:37;101525.25;;;18.99;100.00
56392;BME280;42289;53.582;9.714;2022-08-19T09:23:04;101537.59;;;18.99;100.00
56392;BME280;42289;53.582;9.714;2022-08-19T09:25:30;101545.09;;;19.05;100.00
56392;BME280;42289;53.582;9.714;2022-08-19T09:28:00;101543.50;;;19.03;100.00
56392;BME280;42289;53.582;9.714;2022-08-19T09:30:31;101525.72;;;19.06;100.00
56392;BME280;42289;53.582;9.714;2022-08-19T09:32:58;101503.94;;;19.17;100.00
56392;BME280;42289;53.582;9.714;2022-08-19T09:35:26;101519.06;;;19.28;100.00
56392;BME280;42289;53.582;9.714;2022-08-19T09:37:53;101507.75;;;19.26;100.00
56392;BME280;42289;53.582;9.714;2022-08-19T09:40:20;101512.88;;;19.29;100.00
56392;BME280;42289;53.582;9.714;2022-08-19T09:42:47;101510.22;;;19.29;100.00
56392;BME280;42289;53.582;9.714;2022-08-19T09:45:14;101500.81;;;19.25;100.00
56392;BME280;42289;53.582;9.714;2022-08-19T09:47:42;101502.13;;;19.32;100.00
56392;BME280;42289;53.582;9.714;2022-08-19T09:50:10;101500.75;;;19.39;100.00
56392;BME280;42289;53.582;9.714;2022-08-19T09:52:37;101489.72;;;19.47;100.00
56392;BME280;42289;53.582;9.714;2022-08-19T09:55:04;101487.19;;;19.45;100.00
56392;BME280;42289;53.582;9.714;2022-08-19T09:57:31;101491.22;;;19.51;100.00
56392;BME280;42289;53.582;9.714;2022-08-19T10:00:01;101506.59;;;19.44;100.00
56392;BME280;42289;53.582;9.714;2022-08-19T10:02:27;101507.34;;;19.46;100.00
56392;BME280;42289;53.582;9.714;2022-08-19T10:04:57;101512.16;;;19.40;100.00
56392;BME280;42289;53.582;9.714;2022-08-19T10:07:40;101524.44;;;19.26;100.00
56392;BME280;42289;53.582;9.714;2022-08-19T10:10:08;101534.06;;;19.27;100.00
56392;BME280;42289;53.582;9.714;2022-08-19T10:12:36;101556.09;;;19.12;100.00
56392;BME280;42289;53.582;9.714;2022-08-19T10:15:03;101574.56;;;19.12;100.00
56392;BME280;42289;53.582;9.714;2022-08-19T10:17:31;101596.00;;;19.20;100.00
56392;BME280;42289;53.582;9.714;2022-08-19T10:19:59;101608.72;;;19.13;100.00
56392;BME280;42289;53.582;9.714;2022-08-19T10:22:27;101612.69;;;19.21;100.00
56392;BME280;42289;53.582;9.714;2022-08-19T10:24:54;101602.13;;;19.21;100.00
56392;BME280;42289;53.582;9.714;2022-08-19T10:27:21;101599.66;;;19.32;100.00
56392;BME280;42289;53.582;9.714;2022-08-19T10:29:48;101591.44;;;19.37;100.00
56392;BME280;42289;53.582;9.714;2022-08-19T10:32:14;101581.63;;;19.53;100.00
56392;BME280;42289;53.582;9.714;2022-08-19T10:34:40;101561.59;;;19.63;100.00
56392;BME280;42289;53.582;9.714;2022-08-19T10:37:08;101532.59;;;19.63;100.00
56392;BME280;42289;53.582;9.714;2022-08-19T10:39:35;101508.97;;;19.62;100.00
56392;BME280;42289;53.582;9.714;2022-08-19T10:42:04;101494.28;;;19.58;100.00
56392;BME280;42289;53.582;9.714;2022-08-19T10:44:32;101494.84;;;19.63;100.00
56392;BME280;42289;53.582;9.714;2022-08-19T10:47:00;101492.81;;;19.54;100.00
56392;BME280;42289;53.582;9.714;2022-08-19T10:49:27;101494.06;;;19.48;100.00
56392;BME280;42289;53.582;9.714;2022-08-19T10:51:53;101481.66;;;19.63;100.00
56392;BME280;42289;53.582;9.714;2022-08-19T10:54:39;101475.88;;;19.71;100.00
56392;BME280;42289;53.582;9.714;2022-08-19T10:57:23;101474.81;;;19.73;100.00
56392;BME280;42289;53.582;9.714;2022-08-19T10:59:54;101479.88;;;19.76;100.00
56392;BME280;42289;53.582;9.714;2022-08-19T11:02:20;101459.19;;;19.70;100.00
56392;BME280;42289;53.582;9.714;2022-08-19T11:04:47;101471.75;;;19.66;100.00
56392;BME280;42289;53.582;9.714;2022-08-19T11:07:15;101467.41;;;19.78;100.00
56392;BME280;42289;53.582;9.714;2022-08-19T11:09:43;101473.19;;;19.98;100.00
56392;BME280;42289;53.582;9.714;2022-08-19T11:12:11;101467.91;;;20.37;100.00
56392;BME280;42289;53.582;9.714;2022-08-19T11:14:40;101400.94;;;20.38;100.00
56392;BME280;42289;53.582;9.714;2022-08-19T11:17:06;101363.75;;;20.41;100.00
56392;BME280;42289;53.582;9.714;2022-08-19T11:19:33;101325.69;;;20.43;100.00
56392;BME280;42289;53.582;9.714;2022-08-19T11:22:00;101321.66;;;20.50;100.00
56392;BME280;42289;53.582;9.714;2022-08-19T11:24:29;101311.66;;;20.43;100.00
56392;BME280;42289;53.582;9.714;2022-08-19T11:27:04;101328.72;;;20.50;100.00
56392;BME280;42289;53.582;9.714;2022-08-19T11:29:32;101292.78;;;20.60;100.00
56392;BME280;42289;53.582;9.714;2022-08-19T11:31:59;101281.16;;;20.63;100.00
56392;BME280;42289;53.582;9.714;2022-08-19T11:34:27;101238.88;;;20.63;100.00
56392;BME280;42289;53.582;9.714;2022-08-19T11:36:55;101229.88;;;20.65;100.00
56392;BME280;42289;53.582;9.714;2022-08-19T11:39:24;101242.97;;;20.91;100.00
56392;BME280;42289;53.582;9.714;2022-08-19T11:41:51;101191.69;;;21.05;100.00
56392;BME280;42289;53.582;9.714;2022-08-19T11:44:19;101150.13;;;21.30;100.00
56392;BME280;42289;53.582;9.714;2022-08-19T11:46:46;101111.53;;;21.39;100.00
56392;BME280;42289;53.582;9.714;2022-08-19T11:49:13;101061.97;;;21.52;100.00
56392;BME280;42289;53.582;9.714;2022-08-19T11:51:40;101076.63;;;21.67;100.00
56392;BME280;42289;53.582;9.714;2022-08-19T11:54:08;101060.19;;;21.85;100.00
56392;BME280;42289;53.582;9.714;2022-08-19T11:56:34;101037.47;;;22.04;100.00
56392;BME280;42289;53.582;9.714;2022-08-19T11:59:01;101006.56;;;22.04;100.00
56392;BME280;42289;53.582;9.714;2022-08-19T12:01:29;100986.22;;;22.05;100.00
56392;BME280;42289;53.582;9.714;2022-08-19T12:03:58;101023.94;;;22.18;100.00
56392;BME280;42289;53.582;9.714;2022-08-19T12:06:27;100995.56;;;22.30;100.00
56392;BME280;42289;53.582;9.714;2022-08-19T12:08:55;100950.34;;;22.43;100.00
56392;BME280;42289;53.582;9.714;2022-08-19T12:11:22;100849.06;;;22.29;100.00
56392;BME280;42289;53.582;9.714;2022-08-19T12:13:49;100929.34;;;22.30;100.00
56392;BME280;42289;53.582;9.714;2022-08-19T12:16:21;100936.66;;;22.38;100.00
56392;BME280;42289;53.582;9.714;2022-08-19T12:18:50;100880.19;;;22.37;100.00
56392;BME280;42289;53.582;9.714;2022-08-19T12:21:19;100916.31;;;22.17;100.00
56392;BME280;42289;53.582;9.714;2022-08-19T12:23:47;100931.06;;;22.10;100.00
56392;BME280;42289;53.582;9.714;2022-08-19T12:26:15;100926.88;;;22.07;100.00
56392;BME280;42289;53.582;9.714;2022-08-19T12:28:42;100903.97;;;21.96;100.00
56392;BME280;42289;53.582;9.714;2022-08-19T12:31:09;100947.34;;;22.05;100.00
56392;BME280;42289;53.582;9.714;2022-08-19T12:33:37;100970.59;;;22.01;100.00
56392;BME280;42289;53.582;9.714;2022-08-19T12:36:07;100966.41;;;21.99;100.00
56392;BME280;42289;53.582;9.714;2022-08-19T12:38:35;100968.34;;;21.97;100.00
56392;BME280;42289;53.582;9.714;2022-08-19T12:41:02;100981.44;;;21.98;100.00
56392;BME280;42289;53.582;9.714;2022-08-19T12:43:32;100958.97;;;21.93;100.00
56392;BME280;42289;53.582;9.714;2022-08-19T12:45:59;100975.72;;;21.93;100.00